sensor_id;sensor_type;location;lat;lon;timestamp;pressure;altitude;pressure_sealevel;temperature;humidity
49827;BME280;35715;51.570;6.036;2023-07-09T00:01:40;101585.59;;;27.19;53.18
49827;BME280;35715;51.570;6.036;2023-07-09T00:04:10;101575.81;;;27.13;52.91
49827;BME280;35715;51.570;6.036;2023-07-09T00:06:37;101580.25;;;27.14;52.98
49827;BME280;35715;51.570;6.036;2023-07-09T00:09:02;101581.13;;;27.13;53.86
49827;BME280;35715;51.570;6.036;2023-07-09T00:11:30;101581.09;;;27.12;54.27
49827;BME280;35715;51.570;6.036;2023-07-09T00:13:55;101576.69;;;27.11;54.51
49827;BME280;35715;51.570;6.036;2023-07-09T00:16:24;101576.66;;;27.07;54.71
49827;BME280;35715;51.570;6.036;2023-07-09T00:18:50;101580.13;;;27.02;54.82
49827;BME280;35715;51.570;6.036;2023-07-09T00:21:17;101577.44;;;26.97;55.03
49827;BME280;35715;51.570;6.036;2023-07-09T00:23:43;101579.16;;;26.92;55.26
49827;BME280;35715;51.570;6.036;2023-07-09T00:26:12;101581.75;;;26.89;54.85
49827;BME280;35715;51.570;6.036;2023-07-09T00:28:39;101572.00;;;26.85;55.30
49827;BME280;35715;51.570;6.036;2023-07-09T00:31:10;101575.47;;;26.82;55.39
49827;BME280;35715;51.570;6.036;2023-07-09T00:33:36;101578.94;;;26.77;55.41
49827;BME280;35715;51.570;6.036;2023-07-09T00:36:10;101574.50;;;26.72;55.48
49827;BME280;35715;51.570;6.036;2023-07-09T00:38:36;101575.31;;;26.68;55.36
49827;BME280;35715;51.570;6.036;2023-07-09T00:41:06;101578.75;;;26.66;55.42
49827;BME280;35715;51.570;6.036;2023-07-09T00:43:35;101580.50;;;26.62;55.51
49827;BME280;35715;51.570;6.036;2023-07-09T00:49:02;101578.47;;;26.43;56.45
49827;BME280;35715;51.570;6.036;2023-07-09T00:51:31;101581.72;;;26.23;58.75
49827;BME280;35715;51.570;6.036;2023-07-09T00:54:02;101589.38;;;26.05;59.70
49827;BME280;35715;51.570;6.036;2023-07-09T00:56:45;101588.13;;;25.85;60.47
49827;BME280;35715;51.570;6.036;2023-07-09T00:59:18;101581.88;;;25.79;60.70
49827;BME280;35715;51.570;6.036;2023-07-09T01:01:46;101588.66;;;25.64;61.25
49827;BME280;35715;51.570;6.036;2023-07-09T01:04:15;101577.16;;;25.61;61.72
49827;BME280;35715;51.570;6.036;2023-07-09T01:06:50;101584.53;;;25.79;60.95
49827;BME280;35715;51.570;6.036;2023-07-09T01:09:17;101585.56;;;25.90;60.14
49827;BME280;35715;51.570;6.036;2023-07-09T01:11:43;101580.94;;;25.77;60.09
49827;BME280;35715;51.570;6.036;2023-07-09T01:14:11;101586.97;;;25.68;60.29
49827;BME280;35715;51.570;6.036;2023-07-09T01:16:46;101582.53;;;25.65;60.56
49827;BME280;35715;51.570;6.036;2023-07-09T01:19:13;101583.22;;;25.55;60.99
49827;BME280;35715;51.570;6.036;2023-07-09T01:21:39;101582.16;;;25.44;61.71
49827;BME280;35715;51.570;6.036;2023-07-09T01:24:16;101583.81;;;25.39;61.37
49827;BME280;35715;51.570;6.036;2023-07-09T01:27:01;101581.91;;;25.30;61.28
49827;BME280;35715;51.570;6.036;2023-07-09T01:29:30;101586.13;;;25.23;61.14
49827;BME280;35715;51.570;6.036;2023-07-09T01:31:58;101580.75;;;25.19;61.34
49827;BME280;35715;51.570;6.036;2023-07-09T01:34:23;101572.75;;;25.14;61.16
49827;BME280;35715;51.570;6.036;2023-07-09T01:36:50;101574.47;;;25.12;61.09
49827;BME280;35715;51.570;6.036;2023-07-09T01:39:16;101580.47;;;25.03;61.46
49827;BME280;35715;51.570;6.036;2023-07-09T01:41:42;101575.19;;;25.03;61.65
49827;BME280;35715;51.570;6.036;2023-07-09T01:44:07;101581.34;;;25.04;61.98
49827;BME280;35715;51.570;6.036;2023-07-09T01:46:33;101573.38;;;25.02;61.28
49827;BME280;35715;51.570;6.036;2023-07-09T01:48:58;101579.41;;;24.95;61.40
49827;BME280;35715;51.570;6.036;2023-07-09T01:51:23;101573.25;;;24.94;61.57
49827;BME280;35715;51.570;6.036;2023-07-09T01:53:50;101576.72;;;24.93;61.89
49827;BME280;35715;51.570;6.036;2023-07-09T01:56:16;101573.25;;;24.94;61.79
49827;BME280;35715;51.570;6.036;2023-07-09T01:58:41;101585.75;;;25.03;61.36
49827;BME280;35715;51.570;6.036;2023-07-09T02:01:07;101577.16;;;25.13;61.33
49827;BME280;35715;51.570;6.036;2023-07-09T02:03:33;101586.16;;;25.25;60.40
49827;BME280;35715;51.570;6.036;2023-07-09T02:05:59;101589.84;;;25.31;59.85
49827;BME280;35715;51.570;6.036;2023-07-09T02:08:25;101584.44;;;25.28;59.54
49827;BME280;35715;51.570;6.036;2023-07-09T02:10:51;101582.84;;;25.33;59.18
49827;BME280;35715;51.570;6.036;2023-07-09T02:13:16;101588.19;;;25.37;59.70
49827;BME280;35715;51.570;6.036;2023-07-09T02:15:43;101587.28;;;25.35;60.01
49827;BME280;35715;51.570;6.036;2023-07-09T02:18:13;101581.97;;;25.33;60.13
49827;BME280;35715;51.570;6.036;2023-07-09T02:20:38;101581.03;;;25.31;59.89
49827;BME280;35715;51.570;6.036;2023-07-09T02:23:06;101588.00;;;25.29;60.07
49827;BME280;35715;51.570;6.036;2023-07-09T02:25:31;101592.31;;;25.25;60.28
49827;BME280;35715;51.570;6.036;2023-07-09T02:27:56;101580.84;;;25.23;60.27
49827;BME280;35715;51.570;6.036;2023-07-09T02:30:22;101584.28;;;25.19;60.16
49827;BME280;35715;51.570;6.036;2023-07-09T02:32:47;101585.03;;;25.12;60.44
49827;BME280;35715;51.570;6.036;2023-07-09T02:35:12;101591.13;;;25.08;60.80
49827;BME280;35715;51.570;6.036;2023-07-09T02:37:38;101589.31;;;25.07;60.83
49827;BME280;35715;51.570;6.036;2023-07-09T02:40:04;101589.34;;;25.08;61.10
49827;BME280;35715;51.570;6.036;2023-07-09T02:42:30;101591.09;;;25.06;61.32
49827;BME280;35715;51.570;6.036;2023-07-09T02:44:55;101589.19;;;25.01;61.55
49827;BME280;35715;51.570;6.036;2023-07-09T02:47:21;101596.19;;;24.97;61.67
49827;BME280;35715;51.570;6.036;2023-07-09T02:49:46;101589.94;;;24.93;61.95
49827;BME280;35715;51.570;6.036;2023-07-09T02:52:13;101597.81;;;24.92;62.57
49827;BME280;35715;51.570;6.036;2023-07-09T02:54:38;101600.47;;;24.92;62.86
49827;BME280;35715;51.570;6.036;2023-07-09T02:57:04;101596.91;;;24.90;63.70
49827;BME280;35715;51.570;6.036;2023-07-09T02:59:29;101602.91;;;24.83;64.81
49827;BME280;35715;51.570;6.036;2023-07-09T03:01:55;101595.81;;;24.78;64.88
49827;BME280;35715;51.570;6.036;2023-07-09T03:04:21;101596.56;;;24.73;65.35
49827;BME280;35715;51.570;6.036;2023-07-09T03:06:46;101598.16;;;24.66;65.96
49827;BME280;35715;51.570;6.036;2023-07-09T03:09:12;101606.03;;;24.65;67.02
49827;BME280;35715;51.570;6.036;2023-07-09T03:11:38;101605.59;;;24.46;67.66
49827;BME280;35715;51.570;6.036;2023-07-09T03:14:03;101609.63;;;24.29;68.59
49827;BME280;35715;51.570;6.036;2023-07-09T03:16:31;101608.28;;;24.09;69.72
49827;BME280;35715;51.570;6.036;2023-07-09T03:18:57;101605.31;;;23.96;71.17
49827;BME280;35715;51.570;6.036;2023-07-09T03:21:24;101604.28;;;23.90;71.85
49827;BME280;35715;51.570;6.036;2023-07-09T03:23:50;101606.94;;;23.92;72.34
49827;BME280;35715;51.570;6.036;2023-07-09T03:26:16;101608.19;;;24.06;71.48
49827;BME280;35715;51.570;6.036;2023-07-09T03:28:41;101611.09;;;24.17;70.76
49827;BME280;35715;51.570;6.036;2023-07-09T03:31:07;101607.78;;;24.26;70.47
49827;BME280;35715;51.570;6.036;2023-07-09T03:33:32;101611.34;;;24.28;70.06
49827;BME280;35715;51.570;6.036;2023-07-09T03:35:57;101610.56;;;24.32;69.79
49827;BME280;35715;51.570;6.036;2023-07-09T03:38:23;101610.53;;;24.31;70.02
49827;BME280;35715;51.570;6.036;2023-07-09T03:40:52;101612.38;;;24.33;69.93
49827;BME280;35715;51.570;6.036;2023-07-09T03:43:18;101609.75;;;24.35;70.21
49827;BME280;35715;51.570;6.036;2023-07-09T03:45:45;101616.84;;;24.37;70.15
49827;BME280;35715;51.570;6.036;2023-07-09T03:48:11;101614.16;;;24.36;70.15
49827;BME280;35715;51.570;6.036;2023-07-09T03:50:37;101615.63;;;24.23;69.78
49827;BME280;35715;51.570;6.036;2023-07-09T03:53:03;101611.25;;;24.23;68.87
49827;BME280;35715;51.570;6.036;2023-07-09T03:55:28;101607.78;;;24.26;69.07
49827;BME280;35715;51.570;6.036;2023-07-09T03:57:55;101611.16;;;24.20;69.15
49827;BME280;35715;51.570;6.036;2023-07-09T04:00:20;101608.19;;;24.06;69.92
49827;BME280;35715;51.570;6.036;2023-07-09T04:02:46;101617.28;;;23.84;71.36
49827;BME280;35715;51.570;6.036;2023-07-09T04:05:11;101617.16;;;23.80;71.38
49827;BME280;35715;51.570;6.036;2023-07-09T04:07:37;101617.03;;;23.75;71.98
49827;BME280;35715;51.570;6.036;2023-07-09T04:10:03;101624.78;;;23.69;73.13
49827;BME280;35715;51.570;6.036;2023-07-09T04:12:29;101618.56;;;23.65;73.53
49827;BME280;35715;51.570;6.036;2023-07-09T04:14:54;101613.88;;;23.55;71.97
49827;BME280;35715;51.570;6.036;2023-07-09T04:17:20;101618.03;;;23.45;71.75
49827;BME280;35715;51.570;6.036;2023-07-09T04:19:47;101624.28;;;23.49;72.02
49827;BME280;35715;51.570;6.036;2023-07-09T04:22:12;101621.84;;;23.56;71.19
49827;BME280;35715;51.570;6.036;2023-07-09T04:24:38;101629.06;;;23.64;70.25
49827;BME280;35715;51.570;6.036;2023-07-09T04:27:03;101623.94;;;23.70;69.43
49827;BME280;35715;51.570;6.036;2023-07-09T04:29:30;101620.50;;;23.72;68.76
49827;BME280;35715;51.570;6.036;2023-07-09T04:31:55;101616.88;;;23.69;68.54
49827;BME280;35715;51.570;6.036;2023-07-09T04:34:21;101622.00;;;23.63;68.13
49827;BME280;35715;51.570;6.036;2023-07-09T04:36:47;101615.69;;;23.56;68.40
49827;BME280;35715;51.570;6.036;2023-07-09T04:39:12;101614.44;;;23.43;69.03
49827;BME280;35715;51.570;6.036;2023-07-09T04:41:37;101615.28;;;23.42;69.31
49827;BME280;35715;51.570;6.036;2023-07-09T04:44:03;101615.03;;;23.33;69.58
49827;BME280;35715;51.570;6.036;2023-07-09T04:46:28;101617.56;;;23.28;70.16
49827;BME280;35715;51.570;6.036;2023-07-09T04:48:54;101613.94;;;23.25;70.85
49827;BME280;35715;51.570;6.036;2023-07-09T04:51:21;101610.31;;;23.19;71.05
49827;BME280;35715;51.570;6.036;2023-07-09T04:53:46;101609.28;;;23.14;71.43
49827;BME280;35715;51.570;6.036;2023-07-09T04:56:11;101607.59;;;23.18;71.75
49827;BME280;35715;51.570;6.036;2023-07-09T04:58:38;101619.16;;;23.23;71.68
49827;BME280;35715;51.570;6.036;2023-07-09T05:01:03;101622.19;;;23.37;70.63
49827;BME280;35715;51.570;6.036;2023-07-09T05:03:28;101624.03;;;23.39;70.66
49827;BME280;35715;51.570;6.036;2023-07-09T05:05:54;101623.09;;;23.39;70.46
49827;BME280;35715;51.570;6.036;2023-07-09T05:08:19;101615.25;;;23.41;70.91
49827;BME280;35715;51.570;6.036;2023-07-09T05:10:50;101624.81;;;23.37;71.28
49827;BME280;35715;51.570;6.036;2023-07-09T05:13:16;101618.53;;;23.32;71.44
49827;BME280;35715;51.570;6.036;2023-07-09T05:15:44;101622.31;;;23.42;71.27
49827;BME280;35715;51.570;6.036;2023-07-09T05:18:11;101622.44;;;23.46;71.33
49827;BME280;35715;51.570;6.036;2023-07-09T05:20:36;101624.16;;;23.44;71.13
49827;BME280;35715;51.570;6.036;2023-07-09T05:23:02;101619.84;;;23.48;70.53
49827;BME280;35715;51.570;6.036;2023-07-09T05:25:27;101623.44;;;23.50;71.10
49827;BME280;35715;51.570;6.036;2023-07-09T05:27:53;101617.31;;;23.52;71.23
49827;BME280;35715;51.570;6.036;2023-07-09T05:30:19;101615.59;;;23.53;71.31
49827;BME280;35715;51.570;6.036;2023-07-09T05:32:45;101616.16;;;23.74;71.15
49827;BME280;35715;51.570;6.036;2023-07-09T05:35:10;101621.03;;;23.92;70.57
49827;BME280;35715;51.570;6.036;2023-07-09T05:37:36;101617.78;;;24.03;70.07
49827;BME280;35715;51.570;6.036;2023-07-09T05:40:03;101620.66;;;24.12;69.39
49827;BME280;35715;51.570;6.036;2023-07-09T05:42:30;101621.50;;;24.11;69.31
49827;BME280;35715;51.570;6.036;2023-07-09T05:44:56;101621.56;;;24.14;69.32
49827;BME280;35715;51.570;6.036;2023-07-09T05:47:21;101622.56;;;24.19;69.58
49827;BME280;35715;51.570;6.036;2023-07-09T05:49:47;101623.53;;;24.23;69.71
49827;BME280;35715;51.570;6.036;2023-07-09T05:52:15;101624.47;;;24.25;70.04
49827;BME280;35715;51.570;6.036;2023-07-09T05:54:40;101625.56;;;24.33;70.03
49827;BME280;35715;51.570;6.036;2023-07-09T05:57:06;101627.34;;;24.36;69.92
49827;BME280;35715;51.570;6.036;2023-07-09T05:59:31;101620.56;;;24.45;69.99
49827;BME280;35715;51.570;6.036;2023-07-09T06:01:56;101624.28;;;24.55;70.26
49827;BME280;35715;51.570;6.036;2023-07-09T06:04:22;101621.84;;;24.63;70.14
49827;BME280;35715;51.570;6.036;2023-07-09T06:06:47;101619.31;;;24.68;69.97
49827;BME280;35715;51.570;6.036;2023-07-09T06:09:12;101619.44;;;24.74;69.34
49827;BME280;35715;51.570;6.036;2023-07-09T06:11:38;101618.63;;;24.76;69.79
49827;BME280;35715;51.570;6.036;2023-07-09T06:14:03;101623.28;;;24.88;68.37
49827;BME280;35715;51.570;6.036;2023-07-09T06:16:29;101622.97;;;25.15;67.95
49827;BME280;35715;51.570;6.036;2023-07-09T06:18:54;101622.91;;;25.58;66.16
49827;BME280;35715;51.570;6.036;2023-07-09T06:21:20;101623.59;;;25.97;65.10
49827;BME280;35715;51.570;6.036;2023-07-09T06:23:46;101626.06;;;26.39;63.70
49827;BME280;35715;51.570;6.036;2023-07-09T06:26:12;101622.22;;;26.79;62.59
49827;BME280;35715;51.570;6.036;2023-07-09T06:28:37;101629.75;;;27.17;60.78
49827;BME280;35715;51.570;6.036;2023-07-09T06:31:03;101636.41;;;27.56;59.33
49827;BME280;35715;51.570;6.036;2023-07-09T06:33:29;101635.81;;;27.89;58.06
49827;BME280;35715;51.570;6.036;2023-07-09T06:35:57;101633.38;;;28.12;57.06
49827;BME280;35715;51.570;6.036;2023-07-09T06:38:23;101637.09;;;28.35;55.51
49827;BME280;35715;51.570;6.036;2023-07-09T06:40:49;101634.53;;;28.53;55.78
49827;BME280;35715;51.570;6.036;2023-07-09T06:43:14;101636.47;;;28.74;54.55
49827;BME280;35715;51.570;6.036;2023-07-09T06:46:00;101644.53;;;29.00;53.72
49827;BME280;35715;51.570;6.036;2023-07-09T06:48:27;101634.06;;;29.27;53.21
49827;BME280;35715;51.570;6.036;2023-07-09T06:50:54;101632.31;;;29.55;52.56
49827;BME280;35715;51.570;6.036;2023-07-09T06:53:21;101641.25;;;29.85;51.19
49827;BME280;35715;51.570;6.036;2023-07-09T06:55:47;101636.81;;;30.15;50.75
49827;BME280;35715;51.570;6.036;2023-07-09T06:58:17;101640.31;;;30.35;50.21
49827;BME280;35715;51.570;6.036;2023-07-09T07:00:43;101640.34;;;30.57;49.54
49827;BME280;35715;51.570;6.036;2023-07-09T07:03:09;101631.34;;;30.84;48.88
49827;BME280;35715;51.570;6.036;2023-07-09T07:05:35;101630.38;;;31.05;47.98
49827;BME280;35715;51.570;6.036;2023-07-09T07:08:01;101630.31;;;31.21;47.35
49827;BME280;35715;51.570;6.036;2023-07-09T07:10:28;101647.03;;;31.47;46.69
49827;BME280;35715;51.570;6.036;2023-07-09T07:12:54;101640.63;;;31.78;46.68
49827;BME280;35715;51.570;6.036;2023-07-09T07:15:19;101640.47;;;31.99;46.04
49827;BME280;35715;51.570;6.036;2023-07-09T07:17:45;101633.31;;;32.03;45.65
49827;BME280;35715;51.570;6.036;2023-07-09T07:20:12;101642.16;;;32.14;45.19
49827;BME280;35715;51.570;6.036;2023-07-09T07:22:39;101626.78;;;32.35;44.63
49827;BME280;35715;51.570;6.036;2023-07-09T07:25:05;101632.84;;;32.52;44.23
49827;BME280;35715;51.570;6.036;2023-07-09T07:27:31;101626.38;;;32.77;44.18
49827;BME280;35715;51.570;6.036;2023-07-09T07:29:56;101615.38;;;32.98;43.59
49827;BME280;35715;51.570;6.036;2023-07-09T07:32:23;101624.09;;;33.13;42.73
49827;BME280;35715;51.570;6.036;2023-07-09T07:34:48;101620.69;;;33.01;42.81
49827;BME280;35715;51.570;6.036;2023-07-09T07:37:14;101615.22;;;32.34;43.84
49827;BME280;35715;51.570;6.036;2023-07-09T07:39:40;101628.91;;;31.97;44.65
49827;BME280;35715;51.570;6.036;2023-07-09T07:42:06;101621.94;;;31.76;45.24
49827;BME280;35715;51.570;6.036;2023-07-09T07:44:31;101622.78;;;31.86;44.78
49827;BME280;35715;51.570;6.036;2023-07-09T07:46:57;101624.56;;;31.82;45.31
49827;BME280;35715;51.570;6.036;2023-07-09T07:49:22;101620.22;;;31.72;44.93
49827;BME280;35715;51.570;6.036;2023-07-09T07:51:47;101617.44;;;31.86;45.21
49827;BME280;35715;51.570;6.036;2023-07-09T07:54:13;101619.94;;;32.05;44.86
49827;BME280;35715;51.570;6.036;2023-07-09T07:56:39;101610.84;;;32.29;44.61
49827;BME280;35715;51.570;6.036;2023-07-09T07:59:05;101614.19;;;32.48;44.03
49827;BME280;35715;51.570;6.036;2023-07-09T08:01:30;101611.13;;;32.82;43.61
49827;BME280;35715;51.570;6.036;2023-07-09T08:03:56;101608.59;;;32.72;43.70
49827;BME280;35715;51.570;6.036;2023-07-09T08:06:21;101612.00;;;32.82;43.43
49827;BME280;35715;51.570;6.036;2023-07-09T08:08:47;101613.44;;;33.10;42.97
49827;BME280;35715;51.570;6.036;2023-07-09T08:11:15;101607.97;;;33.17;42.21
49827;BME280;35715;51.570;6.036;2023-07-09T08:13:40;101614.03;;;33.33;41.95
49827;BME280;35715;51.570;6.036;2023-07-09T08:16:07;101613.19;;;33.30;41.61
49827;BME280;35715;51.570;6.036;2023-07-09T08:18:33;101614.75;;;33.43;41.71
49827;BME280;35715;51.570;6.036;2023-07-09T08:21:02;101604.59;;;33.65;41.75
49827;BME280;35715;51.570;6.036;2023-07-09T08:23:28;101609.63;;;33.87;41.71
49827;BME280;35715;51.570;6.036;2023-07-09T08:25:57;101605.44;;;34.20;40.74
49827;BME280;35715;51.570;6.036;2023-07-09T08:28:23;101606.66;;;34.51;40.39
49827;BME280;35715;51.570;6.036;2023-07-09T08:30:52;101598.94;;;34.80;40.97
49827;BME280;35715;51.570;6.036;2023-07-09T08:33:20;101613.28;;;35.18;39.68
49827;BME280;35715;51.570;6.036;2023-07-09T08:35:48;101609.47;;;35.30;40.21
49827;BME280;35715;51.570;6.036;2023-07-09T08:38:13;101605.66;;;35.41;39.18
49827;BME280;35715;51.570;6.036;2023-07-09T08:40:40;101607.84;;;35.61;39.02
49827;BME280;35715;51.570;6.036;2023-07-09T08:44:11;101604.75;;;35.76;38.59
49827;BME280;35715;51.570;6.036;2023-07-09T08:48:56;101607.28;;;35.85;38.86
49827;BME280;35715;51.570;6.036;2023-07-09T08:51:32;101607.28;;;35.85;37.12
49827;BME280;35715;51.570;6.036;2023-07-09T08:54:00;101595.66;;;36.18;37.81
49827;BME280;35715;51.570;6.036;2023-07-09T08:56:31;101593.75;;;36.21;37.02
49827;BME280;35715;51.570;6.036;2023-07-09T08:59:00;101596.97;;;36.36;35.99
49827;BME280;35715;51.570;6.036;2023-07-09T09:01:36;101597.31;;;36.55;36.64
49827;BME280;35715;51.570;6.036;2023-07-09T09:04:20;101583.81;;;36.56;35.48
49827;BME280;35715;51.570;6.036;2023-07-09T09:06:51;101584.97;;;36.79;34.80
49827;BME280;35715;51.570;6.036;2023-07-09T09:09:28;101592.28;;;36.74;34.56
49827;BME280;35715;51.570;6.036;2023-07-09T09:12:11;101587.56;;;36.82;34.37
49827;BME280;35715;51.570;6.036;2023-07-09T09:14:41;101589.75;;;37.27;34.76
49827;BME280;35715;51.570;6.036;2023-07-09T09:17:17;101594.13;;;37.32;33.80
49827;BME280;35715;51.570;6.036;2023-07-09T09:19:53;101580.91;;;37.52;34.61
49827;BME280;35715;51.570;6.036;2023-07-09T09:22:42;101581.84;;;38.03;33.58
49827;BME280;35715;51.570;6.036;2023-07-09T09:27:34;101573.38;;;38.39;32.93
49827;BME280;35715;51.570;6.036;2023-07-09T09:30:00;101572.28;;;38.68;32.77
49827;BME280;35715;51.570;6.036;2023-07-09T09:32:27;101573.25;;;38.42;31.93
49827;BME280;35715;51.570;6.036;2023-07-09T09:34:54;101570.72;;;38.38;31.76
49827;BME280;35715;51.570;6.036;2023-07-09T09:37:30;101574.50;;;38.81;29.56
49827;BME280;35715;51.570;6.036;2023-07-09T09:39:58;101577.66;;;38.92;30.00
49827;BME280;35715;51.570;6.036;2023-07-09T09:42:24;101592.00;;;39.16;29.74
49827;BME280;35715;51.570;6.036;2023-07-09T09:44:53;101594.06;;;39.32;28.97
49827;BME280;35715;51.570;6.036;2023-07-09T09:47:19;101589.75;;;39.28;29.79
49827;BME280;35715;51.570;6.036;2023-07-09T09:49:45;101594.75;;;39.59;29.59
49827;BME280;35715;51.570;6.036;2023-07-09T09:52:15;101586.84;;;39.54;28.79
49827;BME280;35715;51.570;6.036;2023-07-09T09:54:49;101588.06;;;39.90;30.06
49827;BME280;35715;51.570;6.036;2023-07-09T09:57:19;101581.69;;;40.32;30.01
49827;BME280;35715;51.570;6.036;2023-07-09T09:59:46;101589.41;;;40.79;29.36
49827;BME280;35715;51.570;6.036;2023-07-09T10:02:16;101583.47;;;41.09;28.79
49827;BME280;35715;51.570;6.036;2023-07-09T10:04:43;101579.34;;;41.20;28.24
49827;BME280;35715;51.570;6.036;2023-07-09T10:07:35;101570.13;;;41.24;28.08
49827;BME280;35715;51.570;6.036;2023-07-09T10:10:00;101563.53;;;40.74;28.75
49827;BME280;35715;51.570;6.036;2023-07-09T10:18:03;101551.34;;;41.21;27.50
49827;BME280;35715;51.570;6.036;2023-07-09T10:20:42;101567.59;;;41.02;27.39
49827;BME280;35715;51.570;6.036;2023-07-09T10:25:51;101572.03;;;41.93;26.79
49827;BME280;35715;51.570;6.036;2023-07-09T10:39:16;101555.84;;;41.39;26.99
49827;BME280;35715;51.570;6.036;2023-07-09T10:41:46;101549.63;;;41.55;26.10
49827;BME280;35715;51.570;6.036;2023-07-09T10:44:22;101548.69;;;41.56;25.70
49827;BME280;35715;51.570;6.036;2023-07-09T10:46:54;101544.59;;;41.47;26.60
49827;BME280;35715;51.570;6.036;2023-07-09T10:49:21;101547.09;;;41.87;24.97
49827;BME280;35715;51.570;6.036;2023-07-09T10:51:55;101545.03;;;41.92;25.70
49827;BME280;35715;51.570;6.036;2023-07-09T10:54:29;101542.06;;;41.61;25.80
49827;BME280;35715;51.570;6.036;2023-07-09T10:57:02;101538.22;;;42.00;26.26
49827;BME280;35715;51.570;6.036;2023-07-09T10:59:32;101552.97;;;42.46;24.77
49827;BME280;35715;51.570;6.036;2023-07-09T11:02:40;101547.00;;;42.39;24.00
49827;BME280;35715;51.570;6.036;2023-07-09T11:05:06;101546.19;;;42.03;24.77
49827;BME280;35715;51.570;6.036;2023-07-09T11:08:00;101544.00;;;42.28;25.94
49827;BME280;35715;51.570;6.036;2023-07-09T11:10:34;101546.69;;;42.77;24.53
49827;BME280;35715;51.570;6.036;2023-07-09T11:13:15;101533.44;;;42.55;23.56
49827;BME280;35715;51.570;6.036;2023-07-09T11:15:47;101538.28;;;42.82;25.57
49827;BME280;35715;51.570;6.036;2023-07-09T11:18:21;101525.66;;;42.97;25.66
49827;BME280;35715;51.570;6.036;2023-07-09T11:21:04;101529.81;;;42.72;24.99
49827;BME280;35715;51.570;6.036;2023-07-09T11:23:45;101517.41;;;42.34;23.59
49827;BME280;35715;51.570;6.036;2023-07-09T11:29:16;101514.78;;;41.99;24.65
49827;BME280;35715;51.570;6.036;2023-07-09T11:31:44;101518.59;;;41.95;24.39
49827;BME280;35715;51.570;6.036;2023-07-09T11:37:00;101524.59;;;41.32;24.32
49827;BME280;35715;51.570;6.036;2023-07-09T11:42:02;101534.03;;;41.77;25.13
49827;BME280;35715;51.570;6.036;2023-07-09T11:44:30;101536.03;;;41.74;24.34
49827;BME280;35715;51.570;6.036;2023-07-09T11:49:27;101536.00;;;41.56;24.13
49827;BME280;35715;51.570;6.036;2023-07-09T11:52:03;101544.00;;;42.28;23.37
49827;BME280;35715;51.570;6.036;2023-07-09T11:54:38;101544.31;;;43.03;21.64
49827;BME280;35715;51.570;6.036;2023-07-09T11:57:11;101544.94;;;42.76;21.83
49827;BME280;35715;51.570;6.036;2023-07-09T11:59:43;101542.25;;;42.76;22.27
49827;BME280;35715;51.570;6.036;2023-07-09T12:02:17;101549.06;;;42.67;22.18
49827;BME280;35715;51.570;6.036;2023-07-09T12:04:43;101552.78;;;42.49;22.50
49827;BME280;35715;51.570;6.036;2023-07-09T12:07:12;101549.59;;;41.74;22.93
49827;BME280;35715;51.570;6.036;2023-07-09T12:09:41;101550.03;;;41.47;23.06
49827;BME280;35715;51.570;6.036;2023-07-09T12:12:18;101543.66;;;41.48;23.92
49827;BME280;35715;51.570;6.036;2023-07-09T12:14:43;101551.59;;;41.33;23.63
49827;BME280;35715;51.570;6.036;2023-07-09T12:17:09;101544.69;;;41.09;24.58
49827;BME280;35715;51.570;6.036;2023-07-09T12:19:34;101531.91;;;41.12;24.91
49827;BME280;35715;51.570;6.036;2023-07-09T12:22:00;101543.31;;;41.00;24.69
49827;BME280;35715;51.570;6.036;2023-07-09T12:24:36;101543.06;;;40.87;24.67
49827;BME280;35715;51.570;6.036;2023-07-09T12:27:14;101541.56;;;40.80;24.85
49827;BME280;35715;51.570;6.036;2023-07-09T12:29:42;101541.34;;;40.85;25.14
49827;BME280;35715;51.570;6.036;2023-07-09T12:32:14;101534.78;;;40.71;25.49
49827;BME280;35715;51.570;6.036;2023-07-09T12:34:39;101528.22;;;40.58;24.49
49827;BME280;35715;51.570;6.036;2023-07-09T12:37:07;101521.53;;;40.65;25.12
49827;BME280;35715;51.570;6.036;2023-07-09T12:39:34;101517.75;;;40.69;25.34
49827;BME280;35715;51.570;6.036;2023-07-09T12:42:01;101520.44;;;40.69;25.69
49827;BME280;35715;51.570;6.036;2023-07-09T12:44:30;101510.66;;;40.67;25.51
49827;BME280;35715;51.570;6.036;2023-07-09T12:46:57;101513.94;;;40.54;25.52
49827;BME280;35715;51.570;6.036;2023-07-09T12:49:31;101501.81;;;40.44;25.68
49827;BME280;35715;51.570;6.036;2023-07-09T12:52:02;101494.66;;;40.03;26.16
49827;BME280;35715;51.570;6.036;2023-07-09T12:54:29;101501.22;;;39.98;26.00
49827;BME280;35715;51.570;6.036;2023-07-09T12:56:56;101506.13;;;39.88;26.71
49827;BME280;35715;51.570;6.036;2023-07-09T12:59:27;101502.09;;;39.78;26.78
49827;BME280;35715;51.570;6.036;2023-07-09T13:02:00;101501.50;;;39.71;27.12
49827;BME280;35715;51.570;6.036;2023-07-09T13:04:36;101500.22;;;39.59;26.81
49827;BME280;35715;51.570;6.036;2023-07-09T13:07:02;101502.22;;;39.54;27.52
49827;BME280;35715;51.570;6.036;2023-07-09T13:09:28;101500.78;;;39.45;27.36
49827;BME280;35715;51.570;6.036;2023-07-09T13:11:55;101505.34;;;39.45;27.55
49827;BME280;35715;51.570;6.036;2023-07-09T13:14:25;101503.56;;;39.44;26.90
49827;BME280;35715;51.570;6.036;2023-07-09T13:16:51;101507.88;;;39.27;26.02
49827;BME280;35715;51.570;6.036;2023-07-09T13:19:18;101498.03;;;39.26;26.90
49827;BME280;35715;51.570;6.036;2023-07-09T13:21:44;101496.59;;;39.17;26.69
49827;BME280;35715;51.570;6.036;2023-07-09T13:24:30;101492.25;;;39.13;27.27
49827;BME280;35715;51.570;6.036;2023-07-09T13:26:56;101484.47;;;39.05;27.06
49827;BME280;35715;51.570;6.036;2023-07-09T13:29:24;101489.19;;;39.00;27.58
49827;BME280;35715;51.570;6.036;2023-07-09T13:31:50;101491.03;;;38.98;27.56
49827;BME280;35715;51.570;6.036;2023-07-09T13:34:26;101481.50;;;38.90;27.74